• Join FlightAware (Why Join?)
  • Login
  • US Flag 
04:33AM EDT


 

Airport Tracker/Info


-or-


 

Live Flight TrackerFlight Track Log ✈ N3442T ✈ 02-Oct-2013 ✈ KOSU - KDXR

Flight Track Log - Related Links

Times and Time Zones

All times are in EDT time to prevent confusion due to time zone crossing. See the N3442T flight status page for this flight to view local times or setup timezone preferences in your user account.

Time Position Orientation Groundspeed Altitude Reporting Facility
EDT Latitude Longitude Course Direction KTS MPH feet Rate Location/Type
03:26PM 40.0761 -83.0803 326° Northwest 118 136 1,000  Level Indianapolis Center
03:27PM 40.0956 -83.0972 326° Northwest 129 148 1,700 4,020 Climbing Indianapolis Center
03:27PM 40.1189 -83.0956 North 153 176 7,000 780 Climbing Indianapolis Center
03:28PM 40.1247 -83.0775 67° East 148 170 2,500 -2,880 Descending Indianapolis Center
03:29PM 40.1361 -83.0244 74° East 159 183 3,100 540 Climbing Indianapolis Center
03:30PM 40.1478 -82.9689 75° East 160 184 3,700 540 Climbing Indianapolis Center
03:31PM 40.1556 -82.9100 80° East 164 189 4,300 540 Climbing Indianapolis Center
03:32PM 40.1678 -82.8461 76° East 168 193 4,900 480 Climbing Indianapolis Center
03:33PM 40.1781 -82.7867 77° East 193 222 5,300 480 Climbing Indianapolis Center
03:33PM 40.1778 -82.7847 101° East 170 196 5,400 480 Climbing Indianapolis Center
03:34PM 40.1878 -82.7264 77° East 174 200 5,800 360 Climbing Indianapolis Center
03:34PM 40.1875 -82.7233 97° East 173 199 5,800 240 Level Indianapolis Center
03:35PM 40.1983 -82.6642 77° East 174 200 6,100 360 Climbing Indianapolis Center
03:36PM 40.2086 -82.6006 78° East 175 201 6,600 360 Climbing Indianapolis Center
03:37PM 40.2186 -82.5372 78° East 176 203 6,900 120 Climbing Indianapolis Center
03:38PM 40.2314 -82.4656 77° East 186 214 6,900  Level Indianapolis Center
03:39PM 40.2428 -82.4017 77° East 190 219 6,900  Level Indianapolis Center
03:40PM 40.2550 -82.3231 78° East 189 217 7,000  Climbing Indianapolis Center
03:41PM 40.2675 -82.2600 75° East 184 212 7,000  Level Indianapolis Center
03:42PM 40.2769 -82.1858 81° East 193 222 7,000  Level Indianapolis Center
03:43PM 40.2889 -82.1244 76° East 186 214 7,000  Level Indianapolis Center
03:44PM 40.2997 -82.0603 77° East 179 206 7,000  Level Indianapolis Center
03:45PM 40.3100 -81.9922 79° East 184 212 7,000  Level Indianapolis Center
03:46PM 40.3222 -81.9189 78° East 180 207 7,000  Level Indianapolis Center
03:47PM 40.3331 -81.8522 78° East 183 211 7,000  Level Indianapolis Center
03:48PM 40.3433 -81.7903 78° East 178 205 7,000  Level Indianapolis Center
03:49PM 40.3539 -81.7250 78° East 180 207 7,000  Level Indianapolis Center
03:50PM 40.3642 -81.6611 78° East 179 206 7,000  Level Indianapolis Center
03:51PM 40.3750 -81.5950 78° East 180 207 7,000  Level Indianapolis Center
03:52PM 40.3861 -81.5264 78° East 187 215 7,000  Level Indianapolis Center
03:53PM 40.3975 -81.4522 79° East 182 209 7,000  Level Indianapolis Center
03:54PM 40.4083 -81.3850 78° East 184 212 7,000  Level Indianapolis Center
03:55PM 40.4178 -81.3236 79° East 179 206 7,000  Level Indianapolis Center
03:57PM 40.4272 -81.2600 79° East 176 203 7,000  Level Indianapolis Center
03:58PM 40.4400 -81.1886 77° East 185 213 7,000  Level Indianapolis Center
03:59PM 40.4492 -81.1225 80° East 187 215 7,000  Level Indianapolis Center
04:00PM 40.4617 -81.0461 78° East 185 213 7,000  Level Indianapolis Center
04:01PM 40.4717 -80.9808 79° East 183 211 7,000  Level Indianapolis Center
04:02PM 40.4817 -80.9142 79° East 183 211 7,000  Level Indianapolis Center
04:03PM 40.4928 -80.8469 78° East 185 213 7,000  Level Indianapolis Center
04:04PM 40.5011 -80.7819 80° East 183 211 7,000  Level Indianapolis Center
04:05PM 40.5111 -80.7169 79° East 181 208 7,000  Level Indianapolis Center
04:06PM 40.5219 -80.6503 78° East 184 212 7,000  Level Indianapolis Center
04:07PM 40.5358 -80.5561 79° East 182 209 7,000  Level Cleveland Center
04:08PM 40.5456 -80.4922 79° East 180 207 7,000  Level Cleveland Center
04:09PM 40.5556 -80.4267 79° East 182 209 7,000  Level Cleveland Center
04:10PM 40.5647 -80.3622 79° East 179 206 7,000  Level Cleveland Center
04:11PM 40.5742 -80.2947 80° East 179 206 7,000  Level Cleveland Center
04:12PM 40.5850 -80.2178 79° East 179 206 7,000  Level Cleveland Center
04:13PM 40.5958 -80.1542 77° East 180 207 7,000  Level Cleveland Center
04:14PM 40.6050 -80.0908 79° East 179 206 7,000  Level Cleveland Center
04:15PM 40.6136 -80.0264 80° East 180 207 7,000  Level Cleveland Center
04:16PM 40.6236 -79.9617 78° East 179 206 7,000  Level Cleveland Center
04:18PM 40.6333 -79.8969 79° East 180 207 7,000  Level Cleveland Center
04:19PM 40.6442 -79.8192 80° East 180 207 7,000 60 Level Cleveland Center
04:19PM 40.6483 -79.7939 78° East 180 207 7,100 180 Climbing Cleveland Center
04:19PM 40.6486 -79.7886 86° East 180 207 7,100 -180 Level Cleveland Center
04:20PM 40.6539 -79.7533 79° East 183 211 7,000  Descending Cleveland Center
04:20PM 40.6592 -79.7183 79° East 183 211 7,100 -120 Climbing Cleveland Center
04:21PM 40.6631 -79.6881 80° East 182 209 6,900 -120 Descending Cleveland Center
04:21PM 40.6669 -79.6536 82° East 184 212 7,000  Climbing Cleveland Center
04:22PM 40.6725 -79.6231 77° East 181 208 6,900  Descending Cleveland Center
04:22PM 40.6767 -79.5889 81° East 181 208 7,000  Climbing Cleveland Center
04:23PM 40.6814 -79.5569 79° East 184 212 6,900  Descending Cleveland Center
04:23PM 40.6864 -79.5242 79° East 182 209 7,000  Climbing Cleveland Center
04:24PM 40.6911 -79.4914 79° East 182 209 6,900  Descending Cleveland Center
04:24PM 40.6967 -79.4539 79° East 181 208 7,000  Climbing Cleveland Center
04:25PM 40.7019 -79.4136 80° East 181 208 6,900  Descending Cleveland Center
04:25PM 40.7042 -79.3889 83° East 181 208 7,000  Climbing Cleveland Center
04:26PM 40.7114 -79.3497 76° East 179 206 6,900  Descending Cleveland Center
04:26PM 40.7136 -79.3269 83° East 180 207 7,000  Climbing Cleveland Center
04:27PM 40.7206 -79.2856 78° East 178 205 6,900  Descending Cleveland Center
04:27PM 40.7233 -79.2622 81° East 177 204 7,000  Climbing Cleveland Center
04:28PM 40.7300 -79.2206 78° East 180 207 6,900  Descending Cleveland Center
04:28PM 40.7333 -79.1919 81° East 181 208 7,000  Climbing Cleveland Center
04:29PM 40.7383 -79.1558 80° East 180 207 6,900  Descending Cleveland Center
04:29PM 40.7406 -79.1297 84° East 181 208 7,000  Climbing Cleveland Center
04:30PM 40.7475 -79.0906 77° East 180 207 6,900  Descending Cleveland Center
04:30PM 40.7503 -79.0647 82° East 180 207 7,000  Climbing Cleveland Center
04:31PM 40.7575 -79.0133 79° East 179 206 6,900  Descending Cleveland Center
04:31PM 40.7597 -79.0000 78° East 179 206 7,000  Climbing Cleveland Center
04:32PM 40.7667 -78.9431 81° East 180 207 6,900  Descending Cleveland Center
04:32PM 40.7669 -78.9347 87° East 181 208 7,000  Climbing Cleveland Center
04:33PM 40.7761 -78.8783 78° East 182 209 6,900  Descending Cleveland Center
04:33PM 40.7769 -78.8644 85° East 182 209 7,000  Climbing Cleveland Center
04:34PM 40.7847 -78.8131 79° East 182 209 6,900  Descending Cleveland Center
04:34PM 40.7864 -78.7997 81° East 182 209 7,000  Climbing Cleveland Center
04:35PM 40.7936 -78.7486 79° East 180 207 6,900  Descending Cleveland Center
04:35PM 40.7936 -78.7344 90° East 181 208 7,000  Climbing Cleveland Center
04:36PM 40.8025 -78.6836 77° East 181 208 6,900  Descending Cleveland Center
04:36PM 40.8028 -78.6722 88° East 180 207 7,000  Climbing Cleveland Center
04:37PM 40.8125 -78.6056 79° East 182 209 6,900 -60 Descending Cleveland Center
04:38PM 40.8214 -78.5394 80° East 185 213 6,900 60 Level Cleveland Center
04:39PM 40.8297 -78.4761 80° East 181 208 7,100 60 Climbing Cleveland Center
04:40PM 40.8386 -78.4139 79° East 177 204 7,100  Level Cleveland Center
04:41PM 40.8486 -78.3364 80° East 179 206 7,100  Level Cleveland Center
04:42PM 40.8561 -78.2708 81° East 182 209 7,100  Level Cleveland Center
04:43PM 40.8653 -78.2056 79° East 183 211 7,100  Level Cleveland Center
04:44PM 40.8739 -78.1394 80° East 184 212 7,100  Level Cleveland Center
04:45PM 40.8817 -78.0733 81° East 184 212 7,100  Level Cleveland Center
04:47PM 40.8917 -77.9936 81° East 185 213 7,100  Level Cleveland Center
04:48PM 40.9008 -77.9289 79° East 182 209 7,100  Level Cleveland Center
04:49PM 40.9083 -77.8628 81° East 183 211 7,100  Level Cleveland Center
04:50PM 40.9183 -77.7822 81° East 181 208 7,100  Level New York Center
04:51PM 40.9261 -77.7197 81° East 181 208 7,100 -60 Level New York Center
04:52PM 40.9344 -77.6519 81° East 181 208 7,000 -60 Descending New York Center
04:53PM 40.9422 -77.5869 81° East 181 208 7,000  Level New York Center
04:54PM 40.9503 -77.5189 81° East 181 208 7,000  Level New York Center
04:55PM 40.9603 -77.4539 78° East 181 208 7,000  Level New York Center
04:56PM 40.9658 -77.3939 83° East 181 208 7,000  Level New York Center
04:57PM 40.9739 -77.3206 82° East 181 208 7,000  Level New York Center
04:58PM 40.9817 -77.2553 81° East 181 208 7,000  Level New York Center
04:59PM 40.9897 -77.1844 81° East 181 208 7,000  Level New York Center
05:00PM 40.9972 -77.1219 81° East 181 208 7,000  Level New York Center
05:01PM 41.0050 -77.0542 81° East 181 208 7,000  Level New York Center
05:02PM 41.0128 -76.9886 81° East 181 208 7,000  Level New York Center
05:03PM 41.0203 -76.9233 81° East 181 208 7,000  Level New York Center
05:04PM 41.0300 -76.8556 79° East 181 208 7,000  Level New York Center
05:05PM 41.0375 -76.7900 81° East 181 208 7,000  Level New York Center
05:06PM 41.0450 -76.7247 81° East 181 208 7,000  Level New York Center
05:07PM 41.0525 -76.6594 81° East 181 208 7,000  Level New York Center
05:08PM 41.0600 -76.5883 82° East 181 208 7,000  Level New York Center
05:09PM 41.0675 -76.5231 81° East 181 208 7,000  Level New York Center
05:10PM 41.0744 -76.4631 81° East 175 201 7,000  Level New York Center
05:11PM 41.0919 -76.4011 69° East 175 201 7,000  Level New York Center
05:12PM 41.1139 -76.3342 66° East 180 207 7,000  Level New York Center
05:13PM 41.1333 -76.2750 66° East 180 207 7,100  Climbing New York Center
05:14PM 41.1550 -76.2136 65° Northeast 180 207 7,000  Descending New York Center
05:15PM 41.1719 -76.1597 67° East 180 207 7,100  Climbing New York Center
05:16PM 41.1914 -76.1006 66° East 175 201 7,100 -120 Level New York Center
05:17PM 41.2131 -76.0333 67° East 175 201 6,900 -360 Descending New York Center
05:18PM 41.2347 -75.9689 66° East 181 208 6,400 -480 Descending New York Center
05:19PM 41.2542 -75.9042 68° East 181 208 6,000 -480 Descending New York Center
05:20PM 41.2733 -75.8503 65° Northeast 181 208 5,500 -480 Descending New York Center
05:21PM 41.2928 -75.7856 68° East 186 214 5,100 -240 Descending New York Center
05:22PM 41.2956 -75.7194 87° East 186 214 5,100  Level New York Center